Airfield :
LOGIN :

Register | Disclaimer

   EN    FR    IT 

 










Legend :    VFR   Marginal VFR   IFR   Intensive IFR   Very Intensive IFR
Visi :
Ceiling :
>= 8 km
>= 3000ft
5 to 8 km
1000 to 3000 ft
1500m to 5 km
500 to 1000 ft
800 to 1500m
200 to 500 ft
< 800m
< 200 ft
Symbols :   Thunderstorms  Fog  Heavy snow  Heavy precipitations  Wind > 20 kt
SIGMETs :     Misc.  Thunderstorms  Icing  Turbulence  Mountain Waves  Volcanic Ashes







- Airport Elevation : 1247 ft
- IATA code : PRG


LKPR - Praha Ruzyne

CURRENT METAR :
  • 230000Z VRB01KT 9999 BKN022 05/03 Q1004 NOSIG

EXPIRED METARs :
  • 222330Z 34007KT 9999 FEW012 BKN020 05/03 Q1004 NOSIG
  • 222304Z 33011KT 9999 FEW012 BKN022 09/05 Q1004 RMK REG QNH 1000
  • 222300Z 25016G26KT 9999 BKN024 09/05 Q1004 NOSIG
  • 222230Z 24022G32KT 9999 BKN022 09/05 Q1003 TEMPO RA
  • 222200Z 24024G34KT 9999 BKN024 09/05 Q1003 NOSIG
  • 222130Z 24025KT 9999 BKN025 09/05 Q1003 NOSIG

TAF TAF LKPR
Valid from the 23 at 00:00 until the 24 at 06:00 UTC


222300Z 2300/2406 24018KT 9999 BKN020
TEMPO 2300/2406 26026G40KT
TEMPO 2300/2309 8000 -RA BKN013
PROB30
TEMPO 2302/2308 4000 RA BR OVC007
BECMG 2312/2315 CAVOK
PROB30
TEMPO 2322/2406 26035G52KT
No reported NOTAMs for that airfield.
1 SIGMET reported for the Praha FIR (LKAA) :
 
Severe turbulence
LKAA SIGMET 2 VALID 222200/230200 LKPW
LKAA PRAHA FIR SEV TURB FCST ENTIRE FIR SFC/FL100 MOV SE NC.=



MET'MAP, your aeronautical weather chart ! - Copyright ORBIFLY December 2007 - Disclaimer

ORBIFLY MET'MAP TEAM :

Programming & Development : Alexandra Zaïnal
Concept & Development : Baudouin d'Aumeries
Co-Development & Prog : Marc-Olivier Méhu
Technical & hardware support : Manuel Goepfert

Contact : metmap@orbifly.com




SOURCES & CREDITS :

   NOAA